createdAt,value
2022-09-09T00:04:38.492Z,999.39
2022-09-09T00:09:42.661Z,999.34
2022-09-09T00:14:46.833Z,999.40
2022-09-09T00:19:49.083Z,999.40
2022-09-09T00:24:53.250Z,999.28
2022-09-09T00:29:55.478Z,999.21
2022-09-09T00:34:59.691Z,999.18
2022-09-09T00:40:03.909Z,999.20
2022-09-09T00:45:07.973Z,999.13
2022-09-09T00:50:12.117Z,999.15
2022-09-09T00:55:16.329Z,999.19
2022-09-09T01:00:20.447Z,999.07
2022-09-09T01:05:24.626Z,999.17
2022-09-09T01:10:28.766Z,999.12
2022-09-09T01:15:32.944Z,999.12
2022-09-09T01:20:37.089Z,999.25
2022-09-09T01:25:41.283Z,999.11
2022-09-09T01:30:45.465Z,999.10
2022-09-09T01:35:49.597Z,999.08
2022-09-09T01:40:53.719Z,999.14
2022-09-09T01:45:57.912Z,999.02
2022-09-09T01:51:02.054Z,999.06
2022-09-09T01:56:06.253Z,999.11
2022-09-09T02:01:10.463Z,999.11
2022-09-09T02:06:14.532Z,999.13
2022-09-09T02:11:18.706Z,999.15
2022-09-09T02:16:21.044Z,999.08
2022-09-09T02:21:25.127Z,999.09
2022-09-09T02:26:29.276Z,999.09
2022-09-09T02:31:33.451Z,999.12
2022-09-09T02:36:37.615Z,999.14
2022-09-09T02:41:41.762Z,999.22
2022-09-09T02:46:45.950Z,999.22
2022-09-09T02:51:50.067Z,999.18
2022-09-09T03:01:58.471Z,999.19
2022-09-09T03:07:02.551Z,999.09
2022-09-09T03:12:06.730Z,999.00
2022-09-09T03:17:10.910Z,999.08
2022-09-09T03:22:15.083Z,998.96
2022-09-09T03:27:19.208Z,998.88
2022-09-09T03:32:23.386Z,998.84
2022-09-09T03:37:27.510Z,998.89
2022-09-09T03:42:31.729Z,998.86
2022-09-09T03:47:35.830Z,998.96
2022-09-09T03:52:40.004Z,998.92
2022-09-09T03:57:44.176Z,998.97
2022-09-09T04:02:48.326Z,999.03
2022-09-09T04:07:50.599Z,998.97
2022-09-09T04:12:54.776Z,998.94
2022-09-09T04:17:57.068Z,998.97
2022-09-09T04:23:01.222Z,998.87
2022-09-09T04:28:03.448Z,998.94
2022-09-09T04:33:07.628Z,998.95
2022-09-09T04:38:11.794Z,998.96
2022-09-09T04:43:15.951Z,998.93
2022-09-09T04:48:20.094Z,999.05
2022-09-09T04:53:24.242Z,998.93
2022-09-09T04:58:28.520Z,999.03
2022-09-09T05:03:32.601Z,998.98
2022-09-09T05:08:36.849Z,998.87
2022-09-09T05:13:41.532Z,999.01
2022-09-09T05:18:45.082Z,998.96
2022-09-09T05:23:49.241Z,998.91
2022-09-09T05:28:53.392Z,998.93
2022-09-09T05:33:57.561Z,998.89
2022-09-09T05:39:01.687Z,998.91
2022-09-09T05:44:05.896Z,998.98
2022-09-09T05:49:10.037Z,998.95
2022-09-09T05:54:14.195Z,999.02
2022-09-09T05:59:18.339Z,999.02
2022-09-09T06:04:22.540Z,999.06
2022-09-09T06:09:26.628Z,999.01
2022-09-09T06:14:28.940Z,998.98
2022-09-09T06:19:33.090Z,999.08
2022-09-09T06:24:35.384Z,998.98
2022-09-09T06:29:39.501Z,998.96
2022-09-09T06:34:41.811Z,998.97
2022-09-09T06:39:45.948Z,999.01
2022-09-09T06:44:50.120Z,998.93
2022-09-09T06:49:54.239Z,999.01
2022-09-09T06:54:58.448Z,998.99
2022-09-09T07:00:02.617Z,999.03
2022-09-09T07:05:06.804Z,999.01
2022-09-09T07:10:10.929Z,999.14
2022-09-09T07:15:15.089Z,999.17
2022-09-09T07:20:19.233Z,999.23
2022-09-09T07:25:23.434Z,999.19
2022-09-09T07:30:28.060Z,999.21
2022-09-09T07:35:31.710Z,999.22
2022-09-09T07:40:35.882Z,999.23
2022-09-09T07:45:40.067Z,999.25
2022-09-09T07:50:44.172Z,999.31
2022-09-09T07:55:48.357Z,999.24
2022-09-09T08:00:53.648Z,999.26
2022-09-09T08:05:56.669Z,999.33
2022-09-09T08:11:00.816Z,999.32
2022-09-09T08:16:05.017Z,999.37
2022-09-09T08:21:07.257Z,999.30
2022-09-09T08:26:11.448Z,999.39
2022-09-09T08:31:15.645Z,999.31
2022-09-09T08:36:19.732Z,999.28
2022-09-09T08:41:23.870Z,999.34
2022-09-09T08:46:28.178Z,999.44
2022-09-09T08:51:32.197Z,999.43
2022-09-09T08:56:36.414Z,999.37
2022-09-09T09:01:40.585Z,999.36
2022-09-09T09:06:44.707Z,999.38
2022-09-09T09:11:48.861Z,999.38
2022-09-09T09:16:52.981Z,999.41
2022-09-09T09:21:57.179Z,999.42
2022-09-09T09:27:01.377Z,999.46
2022-09-09T09:32:05.497Z,999.32
2022-09-09T09:37:09.628Z,999.39
2022-09-09T09:42:13.803Z,999.40
2022-09-09T09:47:17.981Z,999.51
2022-09-09T09:52:22.123Z,999.43
2022-09-09T09:57:26.291Z,999.51
2022-09-09T10:02:30.460Z,999.50
2022-09-09T10:07:32.712Z,999.45
2022-09-09T10:12:36.846Z,999.39
2022-09-09T10:17:39.162Z,999.35
2022-09-09T10:22:43.293Z,999.38
2022-09-09T10:27:45.589Z,999.41
2022-09-09T10:32:49.720Z,999.27
2022-09-09T10:37:53.860Z,999.22
2022-09-09T10:42:58.048Z,999.16
2022-09-09T10:48:02.185Z,999.06
2022-09-09T10:53:06.386Z,999.12
2022-09-09T10:58:10.534Z,999.12
2022-09-09T11:03:14.708Z,999.03
2022-09-09T11:08:18.999Z,999.03
2022-09-09T11:13:22.985Z,998.97
2022-09-09T11:18:27.172Z,999.16
2022-09-09T11:23:31.333Z,999.01
2022-09-09T11:28:35.562Z,999.06
2022-09-09T11:33:39.646Z,999.11
2022-09-09T11:38:43.802Z,999.05
2022-09-09T11:43:48.112Z,999.02
2022-09-09T11:48:52.144Z,999.05
2022-09-09T11:53:54.400Z,998.99
2022-09-09T11:58:58.538Z,998.97
2022-09-09T12:04:02.737Z,999.01
2022-09-09T12:09:06.961Z,999.10
2022-09-09T12:14:09.148Z,999.27
2022-09-09T12:19:13.271Z,999.30
2022-09-09T12:24:15.547Z,999.36
2022-09-09T12:29:19.752Z,999.40
2022-09-09T12:34:23.847Z,999.28
2022-09-09T12:39:28.097Z,999.22
2022-09-09T12:44:32.169Z,999.13
2022-09-09T12:49:36.375Z,999.06
2022-09-09T12:54:40.525Z,999.19
2022-09-09T12:59:44.696Z,999.26
2022-09-09T13:04:48.844Z,999.19
2022-09-09T13:09:53.025Z,999.11
2022-09-09T13:14:57.141Z,998.98
2022-09-09T13:20:01.378Z,998.82
2022-09-09T13:25:05.462Z,998.78
2022-09-09T13:30:09.620Z,998.80
2022-09-09T13:35:13.776Z,998.79
2022-09-09T13:40:17.945Z,998.88
2022-09-09T13:45:22.113Z,998.95
2022-09-09T13:50:26.285Z,999.21
2022-09-09T13:55:30.426Z,999.28
2022-09-09T14:00:34.559Z,999.07
2022-09-09T14:05:38.727Z,999.07
2022-09-09T14:10:41.029Z,999.02
2022-09-09T14:15:45.230Z,999.00
2022-09-09T14:20:47.452Z,998.78
2022-09-09T14:25:53.135Z,998.70
2022-09-09T14:30:55.793Z,998.76
2022-09-09T14:35:59.896Z,998.78
2022-09-09T14:41:04.077Z,998.81
2022-09-09T14:46:08.295Z,998.79
2022-09-09T14:51:14.690Z,999.00
2022-09-09T14:56:16.567Z,998.94
2022-09-09T15:01:20.735Z,998.86
2022-09-09T15:06:24.880Z,998.83
2022-09-09T15:11:29.050Z,998.78
2022-09-09T15:16:33.208Z,998.90
2022-09-09T15:21:37.344Z,998.85
2022-09-09T15:26:41.551Z,998.90
2022-09-09T15:31:45.683Z,999.79
2022-09-09T15:36:49.848Z,999.87
2022-09-09T15:41:53.987Z,999.73
2022-09-09T15:46:58.104Z,999.77
2022-09-09T15:52:02.336Z,999.45
2022-09-09T15:57:06.456Z,999.49
2022-09-09T16:02:10.774Z,999.47
2022-09-09T16:07:12.897Z,999.39
2022-09-09T16:12:17.073Z,999.31
2022-09-09T16:17:21.205Z,999.32
2022-09-09T16:22:25.369Z,999.40
2022-09-09T16:27:29.533Z,999.38
2022-09-09T16:32:33.669Z,999.35
2022-09-09T16:37:37.821Z,999.48
2022-09-09T16:42:42.002Z,999.54
2022-09-09T16:47:46.144Z,999.65
2022-09-09T16:52:50.365Z,999.73
2022-09-09T16:57:54.512Z,999.65
2022-09-09T17:02:58.691Z,999.62
2022-09-09T17:08:02.798Z,999.44
2022-09-09T17:13:06.960Z,999.51
2022-09-09T17:18:11.126Z,999.48
2022-09-09T17:23:15.302Z,999.58
2022-09-09T17:28:19.438Z,999.61
2022-09-09T17:33:23.647Z,999.38
2022-09-09T17:38:28.824Z,999.57
2022-09-09T17:43:31.909Z,999.57
2022-09-09T17:48:36.067Z,999.57
2022-09-09T17:53:38.339Z,999.60
2022-09-09T17:58:42.516Z,999.54
2022-09-09T18:03:46.671Z,999.67
2022-09-09T18:08:50.814Z,999.64
2022-09-09T18:13:55.018Z,999.70
2022-09-09T18:18:59.125Z,999.76
2022-09-09T18:24:03.284Z,999.78
2022-09-09T18:29:07.457Z,999.92
2022-09-09T18:34:11.666Z,1000.02
2022-09-09T18:39:15.777Z,999.94
2022-09-09T18:44:20.001Z,1000.04
2022-09-09T18:49:24.114Z,1000.03
2022-09-09T18:54:28.271Z,1000.00
2022-09-09T18:59:32.457Z,1000.06
2022-09-09T19:04:36.594Z,1000.11
2022-09-09T19:09:40.727Z,1000.17
2022-09-09T19:14:44.894Z,1000.26
2022-09-09T19:19:49.041Z,1000.19
2022-09-09T19:24:53.224Z,1000.29
2022-09-09T19:29:57.385Z,1000.25
2022-09-09T19:35:01.525Z,1000.19
2022-09-09T19:40:03.810Z,1000.24
2022-09-09T19:45:07.993Z,1000.27
2022-09-09T19:50:12.107Z,1000.28
2022-09-09T19:55:16.340Z,1000.39
2022-09-09T20:00:20.424Z,1000.30
2022-09-09T20:05:24.610Z,1000.43
2022-09-09T20:10:28.767Z,1000.55
2022-09-09T20:15:33.051Z,1000.49
2022-09-09T20:20:37.109Z,1000.55
2022-09-09T20:25:41.249Z,1000.63
2022-09-09T20:30:45.608Z,1000.69
2022-09-09T20:35:49.598Z,1000.67
2022-09-09T20:40:53.712Z,1000.71
2022-09-09T20:45:57.973Z,1000.71
2022-09-09T20:51:02.070Z,1000.75
2022-09-09T20:56:06.230Z,1000.69
2022-09-09T21:01:10.457Z,1000.65
2022-09-09T21:06:14.528Z,1000.67
2022-09-09T21:11:18.696Z,1000.74
2022-09-09T21:16:22.885Z,1000.73
2022-09-09T21:21:27.061Z,1000.71
2022-09-09T21:26:29.289Z,1000.70
2022-09-09T21:31:33.589Z,1000.73
2022-09-09T21:36:35.732Z,1000.68
2022-09-09T21:41:39.893Z,1000.79
2022-09-09T21:46:42.201Z,1000.84
2022-09-09T21:51:46.328Z,1000.77
2022-09-09T21:56:48.605Z,1000.75
2022-09-09T22:01:52.777Z,1000.76
2022-09-09T22:06:56.908Z,1000.76
2022-09-09T22:12:01.062Z,1000.73
2022-09-09T22:22:09.717Z,1000.78
2022-09-09T22:32:17.809Z,1000.85
2022-09-09T22:37:21.863Z,1000.81
2022-09-09T22:42:26.018Z,1000.79
2022-09-09T22:47:30.208Z,1000.81
2022-09-09T22:52:34.382Z,1000.80
2022-09-09T22:57:38.491Z,1000.83
2022-09-09T23:02:42.666Z,1000.82
2022-09-09T23:07:46.848Z,1000.87
2022-09-09T23:12:50.962Z,1000.82
2022-09-09T23:17:55.158Z,1000.87
2022-09-09T23:22:59.302Z,1000.88
2022-09-09T23:28:03.478Z,1000.88
2022-09-09T23:33:07.614Z,1000.92
2022-09-09T23:38:11.816Z,1000.98
2022-09-09T23:43:14.024Z,1000.93
2022-09-09T23:48:18.213Z,1000.83
2022-09-09T23:53:20.493Z,1000.87
2022-09-09T23:58:24.667Z,1000.88
